Pagina principală
METAR-TAF:

METAR-TAF

Aeroporturi :

Tuscaloosa, Alabama, Statele Unite ale Americii

Latitudine: 33-12-43N, longitudine: 087-36-57W, elevație: 52 m

Observații meteo curente

Raportul a fost făcut în urmă cu 58 de minute, la 03:53 UTC
Vânt calm
Temperatură 22°C
Umiditate 94%
Presiune 1015 hPa
Vizibilitate: 16.1 km
Cer senin

METAR: KTCL 280353Z AUTO 00000KT 10SM CLR 22/21 A2998 RMK AO2 SLP150 T02220206

Ora: 23:51 (04:51 UTC)

Prognoză

Raportul a fost făcut în urmă cu 5 ore și 11 de minute, la 23:40 UTC
Prognoză valabilă de la 28 ora 00 UTC la 28 ora 24 UTC
Vânt 7 kt de la Nord-vest
Vizibilitate: 10 km
Cer senin
De la 28 ora 0100 UTC
Vânt 2 kt din direcții variabile
Vizibilitate: 10 km
Cer senin
De la 28 ora 1800 UTC
Vânt 8 kt de la Nord-vest
Vizibilitate: 10 km
Cer senin

TAF: KTCL 272340Z 2800/2824 32007KT P6SM SKC FM280100 VRB02KT P6SM SKC FM281800 32008KT P6SM SKC

Observații și prognoze meteo pentru peste 4.000 de aeroporturi (rapoarte METAR și TAF).

Stațiile disponibile sunt reprezentate pe hartă prin puncte galbene și roșii.

Țineți indicatorul mouse-ului pe punctul dorit pentru a vedea denumirea stației.

Apoi, faceți clic pentru a vedea observațiile și prognozele meteorologice.

Pentru a schimba harta: Pentru mărire, faceți clic pe butoanele verzi cu cruce neagră; pentru micșorare, pe butonul verde cu o liniuță; pentru hărți învecinate, pe săgețile verzi.


METAR-TAF: